createdAt,value
2019-05-05T00:01:07.655Z,78.00
2019-05-05T00:03:41.218Z,79.00
2019-05-05T00:06:10.154Z,79.20
2019-05-05T00:08:39.073Z,79.50
2019-05-05T00:11:12.645Z,79.00
2019-05-05T00:13:44.758Z,80.30
2019-05-05T00:16:20.381Z,80.40
2019-05-05T00:18:50.299Z,80.30
2019-05-05T00:21:20.308Z,79.10
2019-05-05T00:23:58.447Z,80.30
2019-05-05T00:26:38.250Z,79.60
2019-05-05T00:29:07.138Z,79.40
2019-05-05T00:31:36.176Z,80.10
2019-05-05T00:34:15.731Z,80.10
2019-05-05T00:36:44.748Z,79.50
2019-05-05T00:39:14.942Z,78.90
2019-05-05T00:41:44.877Z,76.50
2019-05-05T00:44:15.341Z,74.20
2019-05-05T00:46:55.210Z,72.70
2019-05-05T00:49:26.351Z,72.40
2019-05-05T00:51:55.584Z,74.20
2019-05-05T00:54:25.943Z,75.70
2019-05-05T00:56:54.945Z,77.20
2019-05-05T00:59:25.459Z,74.60
2019-05-05T01:02:12.509Z,74.00
2019-05-05T01:04:46.972Z,73.90
2019-05-05T01:07:16.006Z,74.80
2019-05-05T01:09:45.250Z,75.10
2019-05-05T01:12:15.059Z,73.00
2019-05-05T01:14:44.761Z,72.20
2019-05-05T01:17:14.700Z,72.00
2019-05-05T01:19:46.679Z,71.80
2019-05-05T01:22:14.534Z,72.00
2019-05-05T01:24:45.748Z,71.80
2019-05-05T01:27:14.719Z,71.90
2019-05-05T01:29:45.205Z,71.60
2019-05-05T01:32:15.877Z,71.30
2019-05-05T01:34:48.160Z,71.20
2019-05-05T01:37:28.714Z,71.40
2019-05-05T01:40:05.431Z,71.30
2019-05-05T01:42:35.268Z,71.00
2019-05-05T01:45:04.629Z,70.90
2019-05-05T01:47:34.713Z,70.80
2019-05-05T01:50:17.695Z,71.20
2019-05-05T01:52:35.844Z,71.20
2019-05-05T01:55:06.459Z,70.80
2019-05-05T01:57:35.444Z,70.40
2019-05-05T02:00:06.849Z,70.90
2019-05-05T02:02:35.778Z,70.80
2019-05-05T02:05:06.776Z,70.50
2019-05-05T02:07:35.815Z,70.90
2019-05-05T02:10:06.633Z,70.90
2019-05-05T02:12:37.171Z,71.00
2019-05-05T02:15:08.236Z,71.10
2019-05-05T02:17:37.178Z,71.30
2019-05-05T02:20:07.342Z,71.30
2019-05-05T02:22:37.266Z,71.30
2019-05-05T02:25:07.318Z,71.30
2019-05-05T02:27:37.182Z,71.40
2019-05-05T02:30:17.930Z,71.30
2019-05-05T02:32:48.397Z,71.80
2019-05-05T02:35:17.338Z,72.30
2019-05-05T02:37:46.499Z,72.20
2019-05-05T02:40:16.413Z,72.50
2019-05-05T02:42:46.639Z,72.60
2019-05-05T02:45:24.891Z,72.70
2019-05-05T02:48:06.009Z,72.90
2019-05-05T02:51:00.129Z,73.10
2019-05-05T02:53:25.418Z,73.40
2019-05-05T02:55:57.609Z,73.30
2019-05-05T02:58:28.481Z,73.10
2019-05-05T03:00:59.555Z,72.80
2019-05-05T03:03:29.317Z,72.80
2019-05-05T03:06:00.008Z,72.00
2019-05-05T03:08:29.755Z,72.00
2019-05-05T03:11:00.505Z,71.90
2019-05-05T03:13:33.712Z,72.20
2019-05-05T03:16:20.953Z,72.30
2019-05-05T03:18:50.958Z,72.30
2019-05-05T03:21:20.900Z,72.30
2019-05-05T03:23:50.308Z,72.70
2019-05-05T03:26:19.896Z,72.90
2019-05-05T03:28:54.745Z,72.90
2019-05-05T03:31:26.246Z,72.90
2019-05-05T03:33:55.748Z,72.90
2019-05-05T03:36:26.139Z,72.70
2019-05-05T03:38:56.115Z,72.70
2019-05-05T03:41:30.807Z,73.20
2019-05-05T03:44:04.846Z,72.90
2019-05-05T03:46:35.532Z,72.80
2019-05-05T03:49:05.004Z,72.70
2019-05-05T03:51:34.696Z,72.60
2019-05-05T03:54:04.540Z,72.90
2019-05-05T03:56:34.778Z,72.30
2019-05-05T03:59:05.095Z,72.50
2019-05-05T04:01:54.693Z,72.40
2019-05-05T04:04:28.385Z,72.40
2019-05-05T04:06:58.874Z,72.20
2019-05-05T04:09:27.996Z,72.20
2019-05-05T04:11:57.007Z,72.30
2019-05-05T04:14:25.910Z,72.30
2019-05-05T04:17:03.656Z,72.40
2019-05-05T04:19:34.325Z,72.30
2019-05-05T04:22:04.237Z,72.30
2019-05-05T04:24:34.862Z,72.10
2019-05-05T04:27:05.534Z,73.00
2019-05-05T04:29:34.666Z,72.20
2019-05-05T04:32:04.884Z,72.10
2019-05-05T04:34:34.752Z,71.80
2019-05-05T04:37:04.267Z,71.80
2019-05-05T04:39:34.334Z,71.50
2019-05-05T04:42:04.801Z,71.40
2019-05-05T04:44:34.808Z,71.50
2019-05-05T04:47:11.249Z,71.60
2019-05-05T04:49:44.660Z,71.20
2019-05-05T04:52:17.851Z,70.80
2019-05-05T04:54:48.387Z,70.80
2019-05-05T04:57:17.312Z,70.40
2019-05-05T04:59:47.695Z,70.40
2019-05-05T05:02:34.580Z,70.50
2019-05-05T05:05:08.041Z,70.30
2019-05-05T05:07:36.983Z,70.10
2019-05-05T05:10:07.691Z,70.00
2019-05-05T05:12:36.589Z,69.70
2019-05-05T05:15:06.325Z,69.70
2019-05-05T05:17:44.268Z,69.20
2019-05-05T05:20:14.201Z,69.20
2019-05-05T05:22:43.966Z,69.50
2019-05-05T05:25:13.571Z,69.30
2019-05-05T05:27:44.321Z,69.30
2019-05-05T05:30:13.870Z,69.50
2019-05-05T05:32:44.549Z,68.90
2019-05-05T05:35:14.237Z,68.60
2019-05-05T05:37:44.821Z,68.40
2019-05-05T05:40:15.638Z,68.60
2019-05-05T05:42:44.544Z,68.30
2019-05-05T05:45:15.011Z,68.40
2019-05-05T05:48:04.095Z,68.40
2019-05-05T05:50:34.933Z,68.20
2019-05-05T05:53:04.738Z,67.80
2019-05-05T05:55:34.363Z,67.30
2019-05-05T05:58:04.858Z,67.10
2019-05-05T06:00:34.490Z,67.40
2019-05-05T06:03:03.958Z,67.40
2019-05-05T06:05:34.432Z,67.40
2019-05-05T06:08:04.722Z,67.50
2019-05-05T06:10:34.058Z,67.00
2019-05-05T06:13:04.125Z,67.40
2019-05-05T06:15:33.885Z,67.20
2019-05-05T06:18:04.660Z,66.80
2019-05-05T06:20:34.392Z,66.70
2019-05-05T06:23:04.044Z,67.00
2019-05-05T06:25:34.185Z,67.40
2019-05-05T06:28:04.211Z,67.70
2019-05-05T06:30:33.772Z,67.30
2019-05-05T06:33:04.746Z,67.50
2019-05-05T06:35:33.790Z,67.40
2019-05-05T06:38:04.634Z,67.50
2019-05-05T06:40:50.251Z,67.60
2019-05-05T06:43:34.788Z,67.60
2019-05-05T06:46:20.250Z,67.00
2019-05-05T06:48:49.222Z,66.60
2019-05-05T06:51:19.093Z,66.70
2019-05-05T06:53:47.988Z,66.40
2019-05-05T06:56:16.936Z,66.30
2019-05-05T06:58:45.885Z,66.10
2019-05-05T07:01:14.894Z,66.10
2019-05-05T07:03:43.975Z,65.90
2019-05-05T07:06:14.616Z,65.20
2019-05-05T07:08:43.976Z,65.20
2019-05-05T07:11:14.558Z,65.00
2019-05-05T07:13:44.318Z,65.00
2019-05-05T07:16:14.905Z,64.50
2019-05-05T07:18:44.591Z,63.60
2019-05-05T07:21:14.271Z,64.80
2019-05-05T07:23:44.527Z,63.80
2019-05-05T07:26:14.352Z,64.60
2019-05-05T07:28:45.040Z,63.30
2019-05-05T07:31:14.322Z,63.30
2019-05-05T07:33:43.866Z,63.60
2019-05-05T07:36:30.893Z,63.90
2019-05-05T07:38:59.794Z,63.90
2019-05-05T07:41:28.794Z,64.50
2019-05-05T07:43:57.749Z,64.60
2019-05-05T07:46:26.655Z,64.40
2019-05-05T07:48:55.548Z,63.80
2019-05-05T07:51:24.711Z,63.30
2019-05-05T07:53:54.888Z,63.10
2019-05-05T07:56:25.239Z,62.10
2019-05-05T07:58:54.451Z,62.20
2019-05-05T08:01:24.473Z,62.30
2019-05-05T08:03:53.946Z,61.20
2019-05-05T08:06:23.707Z,61.00
2019-05-05T08:08:54.558Z,60.20
2019-05-05T08:11:23.848Z,60.50
2019-05-05T08:13:54.610Z,61.00
2019-05-05T08:16:37.487Z,60.30
2019-05-05T08:19:25.257Z,60.30
2019-05-05T08:21:54.308Z,60.40
2019-05-05T08:24:40.964Z,58.90
2019-05-05T08:27:17.275Z,59.30
2019-05-05T08:29:54.302Z,58.40
2019-05-05T08:32:32.762Z,58.80
2019-05-05T08:35:01.343Z,58.90
2019-05-05T08:37:30.472Z,58.70
2019-05-05T08:39:59.431Z,58.00
2019-05-05T08:42:28.346Z,57.40
2019-05-05T08:44:57.235Z,57.50
2019-05-05T08:47:28.209Z,57.20
2019-05-05T08:49:56.758Z,57.00
2019-05-05T08:52:25.666Z,57.40
2019-05-05T08:54:54.622Z,57.10
2019-05-05T08:57:23.721Z,57.60
2019-05-05T08:59:54.500Z,57.40
2019-05-05T09:02:23.889Z,56.90
2019-05-05T09:04:53.803Z,57.10
2019-05-05T09:07:24.344Z,58.00
2019-05-05T09:09:54.640Z,57.40
2019-05-05T09:12:23.797Z,57.20
2019-05-05T09:14:53.866Z,57.00
2019-05-05T09:17:24.368Z,56.20
2019-05-05T09:19:53.801Z,56.00
2019-05-05T09:22:24.568Z,56.20
2019-05-05T09:25:04.381Z,55.80
2019-05-05T09:27:34.928Z,56.70
2019-05-05T09:30:04.971Z,57.20
2019-05-05T09:32:34.408Z,58.50
2019-05-05T09:35:04.778Z,58.10
2019-05-05T09:37:34.081Z,58.20
2019-05-05T09:40:04.500Z,57.00
2019-05-05T09:42:34.212Z,56.80
2019-05-05T09:45:04.783Z,55.90
2019-05-05T09:47:34.398Z,53.70
2019-05-05T09:50:04.398Z,52.30
2019-05-05T09:52:34.348Z,53.60
2019-05-05T09:55:03.925Z,53.80
2019-05-05T09:57:34.388Z,53.40
2019-05-05T10:00:08.279Z,51.80
2019-05-05T10:02:39.456Z,50.70
2019-05-05T10:05:09.075Z,51.20
2019-05-05T10:07:38.191Z,50.80
2019-05-05T10:10:07.752Z,50.80
2019-05-05T10:12:36.641Z,49.40
2019-05-05T10:15:07.792Z,49.10
2019-05-05T10:17:36.860Z,48.50
2019-05-05T10:20:07.115Z,48.10
2019-05-05T10:22:36.361Z,48.90
2019-05-05T10:25:26.172Z,49.50
2019-05-05T10:27:55.530Z,49.10
2019-05-05T10:30:24.458Z,48.70
2019-05-05T10:32:54.566Z,47.10
2019-05-05T10:35:23.942Z,45.60
2019-05-05T10:37:54.491Z,44.10
2019-05-05T10:40:25.201Z,43.90
2019-05-05T10:42:54.204Z,42.70
2019-05-05T10:45:24.448Z,43.30
2019-05-05T10:47:54.116Z,44.00
2019-05-05T10:50:24.667Z,43.50
2019-05-05T10:52:54.014Z,44.60
2019-05-05T10:55:24.039Z,44.40
2019-05-05T10:57:54.298Z,43.60
2019-05-05T11:00:47.134Z,42.90
2019-05-05T11:03:16.334Z,42.20
2019-05-05T11:05:46.915Z,42.00
2019-05-05T11:08:15.962Z,42.90
2019-05-05T11:10:45.286Z,41.40
2019-05-05T11:13:14.474Z,41.70
2019-05-05T11:15:44.393Z,40.90
2019-05-05T11:18:14.790Z,42.70
2019-05-05T11:20:44.901Z,42.20
2019-05-05T11:23:15.075Z,42.70
2019-05-05T11:25:44.458Z,42.10
2019-05-05T11:28:13.782Z,43.50
2019-05-05T11:30:45.712Z,43.80
2019-05-05T11:33:34.793Z,43.70
2019-05-05T11:36:08.128Z,43.90
2019-05-05T11:38:37.074Z,42.50
2019-05-05T11:41:06.001Z,43.10
2019-05-05T11:43:34.904Z,43.00
2019-05-05T11:46:03.974Z,44.60
2019-05-05T11:48:34.483Z,43.70
2019-05-05T11:51:04.478Z,43.60
2019-05-05T11:53:34.095Z,44.20
2019-05-05T11:56:04.199Z,43.90
2019-05-05T11:58:34.057Z,44.30
2019-05-05T12:01:03.710Z,44.70
2019-05-05T12:03:33.962Z,45.50
2019-05-05T12:06:04.038Z,46.50
2019-05-05T12:08:34.509Z,45.00
2019-05-05T12:11:04.916Z,42.00
2019-05-05T12:13:33.818Z,41.20
2019-05-05T12:16:04.789Z,40.70
2019-05-05T12:18:34.441Z,42.50
2019-05-05T12:21:05.141Z,44.40
2019-05-05T12:23:34.262Z,45.10
2019-05-05T12:26:16.911Z,45.20
2019-05-05T12:28:50.658Z,45.00
2019-05-05T12:31:27.111Z,44.70
2019-05-05T12:33:57.612Z,45.30
2019-05-05T12:36:26.523Z,45.80
2019-05-05T12:38:55.428Z,46.70
2019-05-05T12:41:24.386Z,47.80
2019-05-05T12:43:54.887Z,48.40
2019-05-05T12:46:34.441Z,48.30
2019-05-05T12:49:05.045Z,47.90
2019-05-05T12:51:34.348Z,48.30
2019-05-05T12:54:04.478Z,47.50
2019-05-05T12:56:34.096Z,47.20
2019-05-05T12:59:04.795Z,47.50
2019-05-05T13:01:37.977Z,47.30
2019-05-05T13:04:06.920Z,47.60
2019-05-05T13:06:35.857Z,47.90
2019-05-05T13:09:07.305Z,46.40
2019-05-05T13:11:36.689Z,44.40
2019-05-05T13:14:05.994Z,43.10
2019-05-05T13:16:34.955Z,43.50
2019-05-05T13:19:05.561Z,43.90
2019-05-05T13:21:44.806Z,44.50
2019-05-05T13:24:24.123Z,45.40
2019-05-05T13:26:54.643Z,46.50
2019-05-05T13:29:24.588Z,45.80
2019-05-05T13:31:54.430Z,46.80
2019-05-05T13:34:23.526Z,47.70
2019-05-05T13:36:52.422Z,47.40
2019-05-05T13:39:21.443Z,47.10
2019-05-05T13:41:50.410Z,47.00
2019-05-05T13:44:20.872Z,46.60
2019-05-05T13:46:49.800Z,46.80
2019-05-05T13:49:20.360Z,46.10
2019-05-05T13:51:49.288Z,45.80
2019-05-05T13:54:18.176Z,45.70
2019-05-05T13:56:47.230Z,45.40
2019-05-05T13:59:16.146Z,45.40
2019-05-05T14:01:45.050Z,45.80
2019-05-05T14:04:14.003Z,46.00
2019-05-05T14:06:44.466Z,46.60
2019-05-05T14:09:13.951Z,46.20
2019-05-05T14:11:44.533Z,46.20
2019-05-05T14:14:13.896Z,47.70
2019-05-05T14:16:44.683Z,48.30
2019-05-05T14:19:14.631Z,48.30
2019-05-05T14:21:44.545Z,47.50
2019-05-05T14:24:18.039Z,46.90
2019-05-05T14:26:46.971Z,47.40
2019-05-05T14:29:17.493Z,47.10
2019-05-05T14:31:46.407Z,47.40
2019-05-05T14:34:16.876Z,48.00
2019-05-05T14:36:47.463Z,48.40
2019-05-05T14:39:17.982Z,48.90
2019-05-05T14:41:46.904Z,49.20
2019-05-05T14:44:15.841Z,49.10
2019-05-05T14:46:44.786Z,48.90
2019-05-05T14:49:14.038Z,49.20
2019-05-05T14:51:44.656Z,49.70
2019-05-05T14:54:14.858Z,49.90
2019-05-05T14:56:44.159Z,50.30
2019-05-05T14:59:14.262Z,50.00
2019-05-05T15:01:44.718Z,49.70
2019-05-05T15:04:15.454Z,50.20
2019-05-05T15:06:48.617Z,49.90
2019-05-05T15:09:19.161Z,50.20
2019-05-05T15:11:58.428Z,50.80
2019-05-05T15:14:27.373Z,51.10
2019-05-05T15:16:56.287Z,50.90
2019-05-05T15:19:25.186Z,50.90
2019-05-05T15:21:54.151Z,51.20
2019-05-05T15:24:24.443Z,51.20
2019-05-05T15:26:54.997Z,51.20
2019-05-05T15:29:25.178Z,51.60
2019-05-05T15:31:54.299Z,52.40
2019-05-05T15:34:24.064Z,52.80
2019-05-05T15:36:54.699Z,53.10
2019-05-05T15:39:24.601Z,53.50
2019-05-05T15:41:54.228Z,53.90
2019-05-05T15:44:24.084Z,54.60
2019-05-05T15:46:57.601Z,55.40
2019-05-05T15:49:24.017Z,56.30
2019-05-05T15:51:53.930Z,57.70
2019-05-05T15:54:23.664Z,60.00
2019-05-05T15:57:04.966Z,62.70
2019-05-05T15:59:23.857Z,65.00
2019-05-05T16:01:54.740Z,66.80
2019-05-05T16:04:23.756Z,67.90
2019-05-05T16:06:54.053Z,69.90
2019-05-05T16:09:23.183Z,69.20
2019-05-05T16:11:54.411Z,68.60
2019-05-05T16:14:25.655Z,67.50
2019-05-05T16:16:56.198Z,66.60
2019-05-05T16:19:28.076Z,66.90
2019-05-05T16:21:58.752Z,64.80
2019-05-05T16:24:29.247Z,64.30
2019-05-05T16:26:58.193Z,64.00
2019-05-05T16:29:27.109Z,63.50
2019-05-05T16:31:56.009Z,63.20
2019-05-05T16:34:24.958Z,63.10
2019-05-05T16:36:54.563Z,63.50
2019-05-05T16:39:25.685Z,63.70
2019-05-05T16:41:54.794Z,62.50
2019-05-05T16:44:23.698Z,62.70
2019-05-05T16:46:53.984Z,61.80
2019-05-05T16:49:23.073Z,61.70
2019-05-05T16:51:54.500Z,61.60
2019-05-05T16:54:25.156Z,61.00
2019-05-05T16:56:54.056Z,61.40
2019-05-05T16:59:23.745Z,62.20
2019-05-05T17:01:54.110Z,63.30
2019-05-05T17:04:24.324Z,64.70
2019-05-05T17:06:54.700Z,66.10
2019-05-05T17:09:24.150Z,68.10
2019-05-05T17:12:11.319Z,69.00
2019-05-05T17:14:44.427Z,70.40
2019-05-05T17:17:31.156Z,66.20
2019-05-05T17:20:04.788Z,63.00
2019-05-05T17:22:35.323Z,61.50
2019-05-05T17:25:04.904Z,59.80
2019-05-05T17:27:47.020Z,59.00
2019-05-05T17:30:06.102Z,59.80
2019-05-05T17:32:35.006Z,59.90
2019-05-05T17:35:04.011Z,59.70
2019-05-05T17:37:33.565Z,60.80
2019-05-05T17:40:20.439Z,61.40
2019-05-05T17:42:58.171Z,61.70
2019-05-05T17:45:31.444Z,62.50
2019-05-05T17:48:07.702Z,62.70
2019-05-05T17:50:56.043Z,62.80
2019-05-05T17:53:29.272Z,62.90
2019-05-05T17:55:59.741Z,63.20
2019-05-05T17:58:28.767Z,63.80
2019-05-05T18:00:59.233Z,64.70
2019-05-05T18:03:28.122Z,65.80
2019-05-05T18:05:58.636Z,65.90
2019-05-05T18:08:41.254Z,66.40
2019-05-05T18:11:13.518Z,66.60
2019-05-05T18:14:00.135Z,66.60
2019-05-05T18:16:30.223Z,66.80
2019-05-05T18:18:59.128Z,67.10
2019-05-05T18:21:31.736Z,66.90
2019-05-05T18:23:58.917Z,67.10
2019-05-05T18:26:27.801Z,66.70
2019-05-05T18:28:56.696Z,66.20
2019-05-05T18:31:25.670Z,65.90
2019-05-05T18:33:54.563Z,65.50
2019-05-05T18:36:23.476Z,65.60
2019-05-05T18:38:53.880Z,65.60
2019-05-05T18:41:27.460Z,66.20
2019-05-05T18:43:57.990Z,66.50
2019-05-05T18:46:26.944Z,66.60
2019-05-05T18:48:55.903Z,66.50
2019-05-05T18:51:24.843Z,67.00
2019-05-05T18:53:55.012Z,67.60
2019-05-05T18:56:24.056Z,68.20
2019-05-05T18:58:54.306Z,68.00
2019-05-05T19:01:27.527Z,68.50
2019-05-05T19:04:04.379Z,68.80
2019-05-05T19:06:40.711Z,69.90
2019-05-05T19:09:11.217Z,71.90
2019-05-05T19:11:41.038Z,73.20
2019-05-05T19:14:09.974Z,75.10
2019-05-05T19:16:38.997Z,76.10
2019-05-05T19:19:07.884Z,77.30
2019-05-05T19:21:38.400Z,78.40
2019-05-05T19:24:07.358Z,77.50
2019-05-05T19:26:36.262Z,78.20
2019-05-05T19:29:05.244Z,79.30
2019-05-05T19:31:36.342Z,81.80
2019-05-05T19:34:04.873Z,83.10
2019-05-05T19:36:34.286Z,83.00
2019-05-05T19:39:04.121Z,83.40
2019-05-05T19:41:34.822Z,84.90
2019-05-05T19:44:04.827Z,84.40
2019-05-05T19:46:51.845Z,85.70
2019-05-05T19:49:20.809Z,86.40
2019-05-05T19:51:50.669Z,86.20
2019-05-05T19:54:19.572Z,86.30
2019-05-05T19:56:48.512Z,85.90
2019-05-05T19:59:17.462Z,86.80
2019-05-05T20:01:46.337Z,86.00
2019-05-05T20:04:15.265Z,86.50
2019-05-05T20:06:44.482Z,87.00
2019-05-05T20:09:14.198Z,87.50
2019-05-05T20:11:43.920Z,87.80
2019-05-05T20:14:15.131Z,87.20
2019-05-05T20:17:04.261Z,87.70
2019-05-05T20:19:35.494Z,88.30
2019-05-05T20:22:04.621Z,88.80
2019-05-05T20:24:33.761Z,89.10
2019-05-05T20:27:04.614Z,90.20
2019-05-05T20:29:37.051Z,90.00
2019-05-05T20:32:04.433Z,90.10
2019-05-05T20:34:51.377Z,87.10
2019-05-05T20:37:21.005Z,85.60
2019-05-05T20:39:50.967Z,86.30
2019-05-05T20:42:19.904Z,84.70
2019-05-05T20:44:48.803Z,84.40
2019-05-05T20:47:17.706Z,83.60
2019-05-05T20:49:46.699Z,85.20
2019-05-05T20:52:15.636Z,83.70
2019-05-05T20:54:44.536Z,84.00
2019-05-05T20:57:13.486Z,83.60
2019-05-05T20:59:44.378Z,82.90
2019-05-05T21:02:13.677Z,83.40
2019-05-05T21:04:44.593Z,83.50
2019-05-05T21:07:14.031Z,83.40
2019-05-05T21:09:43.177Z,83.50
2019-05-05T21:12:13.833Z,83.60
2019-05-05T21:14:44.618Z,82.50
2019-05-05T21:17:15.540Z,81.90
2019-05-05T21:19:44.504Z,82.30
2019-05-05T21:22:27.043Z,83.20
2019-05-05T21:24:56.948Z,84.40
2019-05-05T21:27:25.848Z,83.80
2019-05-05T21:29:54.784Z,84.00
2019-05-05T21:32:25.389Z,83.50
2019-05-05T21:34:54.431Z,84.00
2019-05-05T21:37:24.876Z,83.80
2019-05-05T21:39:55.215Z,84.00
2019-05-05T21:42:24.425Z,84.10
2019-05-05T21:44:54.304Z,84.20
2019-05-05T21:47:23.984Z,84.60
2019-05-05T21:49:54.270Z,84.40
2019-05-05T21:52:32.100Z,84.30
2019-05-05T21:55:04.216Z,84.60
2019-05-05T21:57:34.848Z,84.00
2019-05-05T22:00:06.906Z,84.90
2019-05-05T22:02:35.816Z,84.80
2019-05-05T22:05:06.445Z,84.90
2019-05-05T22:07:35.393Z,85.70
2019-05-05T22:10:05.248Z,85.90
2019-05-05T22:12:36.370Z,88.00
2019-05-05T22:15:06.029Z,86.60
2019-05-05T22:17:36.496Z,84.50
2019-05-05T22:20:14.324Z,83.30
2019-05-05T22:22:46.512Z,84.10
2019-05-05T22:25:15.501Z,84.40
2019-05-05T22:27:44.436Z,84.80
2019-05-05T22:30:14.260Z,85.20
2019-05-05T22:32:44.091Z,85.60
2019-05-05T22:35:14.013Z,86.20
2019-05-05T22:37:44.149Z,84.80
2019-05-05T22:40:24.386Z,84.30
2019-05-05T22:42:54.663Z,85.20
2019-05-05T22:45:23.945Z,85.40
2019-05-05T22:47:54.309Z,84.80
2019-05-05T22:50:24.674Z,84.60
2019-05-05T22:52:54.497Z,84.40
2019-05-05T22:55:24.751Z,83.60
2019-05-05T22:57:54.382Z,84.40
2019-05-05T23:00:29.236Z,83.90
2019-05-05T23:02:59.244Z,83.20
2019-05-05T23:05:44.864Z,83.60
2019-05-05T23:08:18.012Z,83.00
2019-05-05T23:10:45.388Z,83.20
2019-05-05T23:13:14.341Z,82.80
2019-05-05T23:15:44.800Z,82.10
2019-05-05T23:18:18.084Z,81.70
2019-05-05T23:21:07.287Z,82.00
2019-05-05T23:23:56.031Z,80.90
2019-05-05T23:26:27.776Z,80.60
2019-05-05T23:28:56.724Z,80.40
2019-05-05T23:31:25.632Z,80.90
2019-05-05T23:33:54.950Z,80.70
2019-05-05T23:36:24.297Z,81.10
2019-05-05T23:38:54.914Z,80.70
2019-05-05T23:41:24.129Z,81.50
2019-05-05T23:43:54.475Z,81.20
2019-05-05T23:46:24.119Z,81.70
2019-05-05T23:48:53.796Z,82.00
2019-05-05T23:51:24.245Z,81.30
2019-05-05T23:53:55.024Z,81.70
2019-05-05T23:56:24.157Z,82.10
2019-05-05T23:58:54.928Z,82.10
